Lincoln, NM

11:23 PM MDT on April 26, 2015 (GMT -0600)
Alamogordo-White Sands Regional | | Change Station
CLOSE
Current Station
Airport
Location: Alamogordo,
Elevation: 4196 ft
Nearby Weather Stations

Elev 4196 ft 32.84 °N, 105.99 °W | Updated 8 minutes ago

Partly Cloudy
Partly Cloudy
48 °F
Feels Like 48 °F
N
4
Wind Variable Wind from West

Today
High -- | Low -- °F
--% Chance of Precip.
Yesterday
High -- | Low -- °F
Precip. -- in
6:19 AM 7:41 PM
First Quarter, 62% visible
Pressure 29.83 in
Visibility 10.0 miles
Clouds Clear
Dew Point 36 °F
Humidity 62%
Rainfall 0.00 in
Snow Depth Not available.
UV 0 out of 12
Pollen 8.10 out of 12
Air Quality Not available.
Flu Activity Local Activity
METAR KALM 270515Z AUTO 26003KT 10SM CLR 09/02 A2983 RMK AO2

More Conditions Fewer Conditions

Pressure 29.83 in
Visibility 10.0 miles
Clouds Clear
Dew Point 36 °F
Humidity 62%
Rainfall 0.00 in
Snow Depth Not available.
UV 0 out of 12
Pollen 8.10 out of 12
Air Quality Not available.
Flu Activity Local Activity
METAR KALM 270515Z AUTO 26003KT 10SM CLR 09/02 A2983 RMK AO2

More Conditions Fewer Conditions

The full scope of the disaster following a powerful 7.8-magnitude earthquake in Nepal may not come into view for days, but global charities are already sending emergency aid. Click to see how you can help.
Nowcast | as of 11:02 PM MDT on April 26, 2015

Before 1 am MDT...showers and thunderstorms will continue to favor areas along and in the vicinity of a south and westward moving frontal boundary stretching along the east slopes of the Sangre de Cristo Mountains and through Clines Corners...to Portales. Northeast winds of 20 to 30 mph with gusts over 40 mph will be possible behind the front. Some locations which will be affected by showers and storms include Anton Chico...Clines Corners... Colonias and Newkirk. In addition...wet snowfall will impact the Interstate 25 corridor in the Las Vegas to Glorieta area...with visibilities falling to less than 2 miles in snow. Snow will also impact the east slopes of the Sangre de Cristo Mountains... including Angel Fire.

×

10-Day Weather Forecast

Almanac

Astronomy

Apr. 26, 2015 Rise Set
Actual Time
Civil Twilight
Nautical Twilight
Astronomical Twilight
Moon
Length of Visible Light
Length of Day
Tomorrow will be .
, % of the Moon is Illuminated

Today's Extremes

State Highs State Lows

Community

WunderPhotos

Upload Photos

1,817,268 photos uploaded!

WunderBlogs® & News

Nearby

Air Quality

  Air Quality AQ Index Pollutant
Not available.

Snow Depth

Station Depth Elevation

Earthquake Activity

City Distance Mag. Time & Date
Minimum magnitude displayed is 2.5.

Coastal Water Temperatures

Place Temperature

Stations

Nearby Weather Stations

Station Location Temp. Windchill Dew Point Humidity Wind Precip. Elev Updated Type